Harbor Emperor — WCY6430 — position and weather

sailwx.info

Track history (hours):
 
Tides and Currents Weather Stations Pressure Air Temp Water Temp Dewpoint Dewpoint Depression Visibility Wind Speed Wind Dir Waves Ship Positions

Harbor Emperor

Owner: BLUE & GOLD FLEET, SAN FRANCISCO, CA. More information available from US FCC via Universal Licensing System and Coast Guard Vessel Documentation Center.

Last reported at 2014-Oct-01 00:33 UTC. Time now 2014-Oct-02 06:32 UTC.
Position N 37°49' W 122°25'.

Length 31 m.

Type: Passenger vessel. MMSI: 366985270.

Date/timePositionNaut miles runAvg speedWind from/ knotsBaromVisibWave heightAir tempDewpointWater temp
2014-Oct-01 00:33N 37°49' W 122°25'0 0.1
2014-Sep-30 23:33N 37°49' W 122°25'2 2.2
2014-Sep-30 22:34N 37°49' W 122°28'2 2.3
2014-Sep-30 21:33N 37°49' W 122°25'2 2.1
2014-Sep-30 20:33N 37°49' W 122°27'3 2.9
2014-Sep-30 19:33N 37°49' W 122°24'1 0.8
2014-Sep-30 18:33N 37°49' W 122°25'2 2.0
2014-Sep-30 17:33N 37°49' W 122°27'2 2.1
2014-Sep-30 16:33N 37°49' W 122°25'0 0.0
2014-Sep-30 15:30N 37°49' W 122°25'0 0.0
2014-Sep-30 14:33N 37°49' W 122°25'0 0.0
2014-Sep-30 13:33N 37°49' W 122°25'0 0.0
2014-Sep-30 12:30N 37°49' W 122°25'0 0.0
2014-Sep-30 11:33N 37°49' W 122°25'0 0.0
2014-Sep-30 10:33N 37°49' W 122°25'0 0.0
2014-Sep-30 09:33N 37°49' W 122°25'0 0.0
2014-Sep-30 08:33N 37°49' W 122°25'0 0.0
2014-Sep-30 07:33N 37°49' W 122°25'0 0.0
2014-Sep-30 06:33N 37°49' W 122°25'0 0.0
2014-Sep-30 05:33N 37°49' W 122°25'0 0.0
2014-Sep-30 04:33N 37°49' W 122°25'0 0.0
2014-Sep-30 03:33N 37°49' W 122°25'0 0.0
2014-Sep-30 02:30N 37°49' W 122°25'0 0.0
2014-Sep-30 01:33N 37°49' W 122°25'0 0.0
2014-Sep-30 00:33N 37°49' W 122°25'0 0.0
2014-Sep-29 23:34N 37°49' W 122°25'2 1.9
2014-Sep-29 22:34N 37°49' W 122°27'2 1.9
2014-Sep-29 21:32N 37°49' W 122°25'2 1.7
2014-Sep-29 20:33N 37°49' W 122°27'2 2.2
2014-Sep-29 19:34N 37°49' W 122°24'1 0.7
2014-Sep-29 18:32N 37°49' W 122°25'2 1.8
2014-Sep-29 17:33N 37°49' W 122°27'2 0.1
2014-Sep-29 00:33N 37°49' W 122°25'0 0.1
2014-Sep-28 23:34N 37°49' W 122°25'2 2.0
2014-Sep-28 22:34N 37°49' W 122°27'2 2.0
2014-Sep-28 21:33N 37°49' W 122°25'2 2.2
2014-Sep-28 20:34N 37°49' W 122°27'3 2.6
2014-Sep-28 19:33N 37°49' W 122°24'1 0.6
2014-Sep-28 18:34N 37°49' W 122°25'2 2.2
2014-Sep-28 17:33N 37°49' W 122°28'3 0.2
2014-Sep-28 05:33N 37°49' W 122°24'1 1.5
2014-Sep-28 04:33N 37°48' W 122°23'3 2.6
2014-Sep-28 03:33N 37°49' W 122°26'1 1.1
2014-Sep-28 02:32N 37°49' W 122°25'0 0.0
2014-Sep-28 01:29N 37°49' W 122°25'0 0.0
2014-Sep-28 00:32N 37°49' W 122°25'0 0.0
2014-Sep-27 23:28N 37°49' W 122°25'3 3.3
2014-Sep-27 22:33N 37°49' W 122°28'3 2.8
2014-Sep-27 21:30N 37°49' W 122°25'2 2.5
2014-Sep-27 20:33N 37°49' W 122°28'4 3.5
2014-Sep-27 19:33N 37°48' W 122°23'1 1.2
2014-Sep-27 18:34N 37°49' W 122°25'3 2.6
2014-Sep-27 17:33N 37°49' W 122°28'2 0.2
2014-Sep-27 01:34N 37°49' W 122°25'1 0.8
2014-Sep-27 00:33N 37°49' W 122°25'0 0.1
2014-Sep-26 23:34N 37°49' W 122°25'3 2.7
2014-Sep-26 22:34N 37°49' W 122°28'3 2.7
2014-Sep-26 21:33N 37°49' W 122°25'2 2.4
2014-Sep-26 20:34N 37°49' W 122°28'3 3.0
2014-Sep-26 19:33N 37°49' W 122°24'1 0.7
2014-Sep-26 18:33N 37°49' W 122°25'2 1.9
2014-Sep-26 17:33N 37°49' W 122°27'2 1.8
2014-Sep-26 16:31N 37°49' W 122°25'0 0.0
2014-Sep-26 15:28N 37°49' W 122°25'0 0.0
2014-Sep-26 14:31N 37°49' W 122°25'0 0.0
2014-Sep-26 13:28N 37°49' W 122°25'0 0.0
2014-Sep-26 12:31N 37°49' W 122°25'0 0.0
2014-Sep-26 11:31N 37°49' W 122°25'0 0.0
2014-Sep-26 10:28N 37°49' W 122°25'0 0.0
2014-Sep-26 09:31N 37°49' W 122°25'0 0.0
2014-Sep-26 08:31N 37°49' W 122°25'0 0.0
2014-Sep-26 07:31N 37°49' W 122°25'0 0.0
2014-Sep-26 06:31N 37°49' W 122°25'0 0.0
2014-Sep-26 05:31N 37°49' W 122°25'0 0.0
2014-Sep-26 04:31N 37°49' W 122°25'0 0.0
2014-Sep-26 03:31N 37°49' W 122°25'0 0.0
2014-Sep-26 02:31N 37°49' W 122°25'0 0.3
2014-Sep-26 01:33N 37°49' W 122°24'0 0.3
2014-Sep-26 00:33N 37°49' W 122°25'0 0.1
2014-Sep-25 23:33N 37°49' W 122°25'3 2.8
2014-Sep-25 22:34N 37°49' W 122°28'3 2.9
2014-Sep-25 21:34N 37°49' W 122°25'3 2.8
2014-Sep-25 20:34N 37°49' W 122°28'3 3.4
2014-Sep-25 19:33N 37°49' W 122°24'1 0.7
2014-Sep-25 18:34N 37°49' W 122°25'2 2.5
2014-Sep-25 17:33N 37°49' W 122°28'2 2.5
2014-Sep-25 16:33N 37°49' W 122°25'0 0.0
2014-Sep-25 15:33N 37°49' W 122°25'0 0.0
2014-Sep-25 14:33N 37°49' W 122°25'0 0.0
2014-Sep-25 13:33N 37°49' W 122°25'0 0.0
2014-Sep-25 12:33N 37°49' W 122°25'0 0.0
2014-Sep-25 11:30N 37°49' W 122°25'0 0.0
2014-Sep-25 10:33N 37°49' W 122°25'0 0.0
2014-Sep-25 09:30N 37°49' W 122°25'0 0.0
2014-Sep-25 08:33N 37°49' W 122°25'0 0.0
2014-Sep-25 07:33N 37°49' W 122°25'0 0.0
2014-Sep-25 06:30N 37°49' W 122°25'0 0.0
2014-Sep-25 05:33N 37°49' W 122°25'0 0.0
2014-Sep-25 04:33N 37°49' W 122°25'0 0.0
2014-Sep-25 03:33N 37°49' W 122°25'0 0.0
2014-Sep-25 02:33N 37°49' W 122°25'0 0.0
2014-Sep-25 01:33N 37°49' W 122°25'0 0.0
2014-Sep-25 00:28N 37°49' W 122°25'0 0.1
2014-Sep-24 23:33N 37°49' W 122°25'3 3.3
2014-Sep-24 22:34N 37°49' W 122°29'3 3.3
2014-Sep-24 21:33N 37°49' W 122°25'3 2.8
2014-Sep-24 20:33N 37°49' W 122°28'4 3.7
2014-Sep-24 19:33N 37°49' W 122°23'1 1.0
2014-Sep-24 18:33N 37°49' W 122°25'2 2.2
2014-Sep-24 17:33N 37°49' W 122°27'2 0.1
2014-Sep-24 00:31N 37°49' W 122°25'0 0.0
2014-Sep-23 23:34N 37°49' W 122°25'2 2.3
2014-Sep-23 22:34N 37°49' W 122°27'2 2.2
2014-Sep-23 21:33N 37°49' W 122°25'2 2.3
2014-Sep-23 20:33N 37°49' W 122°28'2 2.0
2014-Sep-23 19:33N 37°49' W 122°25'1 0.9
2014-Sep-23 18:30N 37°49' W 122°25'2 2.2
2014-Sep-23 17:33N 37°49' W 122°27'2 2.0
2014-Sep-23 16:32N 37°49' W 122°25'0 0.0
2014-Sep-23 00:31N 37°49' W 122°25'0 0.0
2014-Sep-22 23:33N 37°49' W 122°25'2 2.2
2014-Sep-22 22:33N 37°49' W 122°27'2 2.2
2014-Sep-22 21:33N 37°49' W 122°25'3 2.6
2014-Sep-22 20:33N 37°49' W 122°28'2 2.1
2014-Sep-22 19:33N 37°49' W 122°25'1 0.9
2014-Sep-22 18:33N 37°49' W 122°25'2 2.0
2014-Sep-22 17:33N 37°49' W 122°27'2 0.1
2014-Sep-22 01:08N 37°49' W 122°25'2 3.2
2014-Sep-22 00:34N 37°50' W 122°27'2 1.7
2014-Sep-21 23:34N 37°49' W 122°25'1 0.5
2014-Sep-21 22:33N 37°49' W 122°25'1 1.4
2014-Sep-21 21:34N 37°50' W 122°25'1 1.4
2014-Sep-21 20:33N 37°49' W 122°25'3 2.6
2014-Sep-21 19:34N 37°49' W 122°28'3 2.7
2014-Sep-21 18:33N 37°49' W 122°24'1 0.5
2014-Sep-21 17:33N 37°49' W 122°25'0 0.0
2014-Sep-21 16:31N 37°49' W 122°25'0 0.0
2014-Sep-21 15:31N 37°49' W 122°25'0 0.0
2014-Sep-21 14:31N 37°49' W 122°25'0 0.0
2014-Sep-21 13:31N 37°49' W 122°25'0 0.0
2014-Sep-21 12:28N 37°49' W 122°25'0 0.0
2014-Sep-21 11:31N 37°49' W 122°25'0 0.0
2014-Sep-21 10:31N 37°49' W 122°25'0 0.0
2014-Sep-21 09:31N 37°49' W 122°25'0 0.0
2014-Sep-21 08:31N 37°49' W 122°25'0 0.0
2014-Sep-21 07:31N 37°49' W 122°25'0 0.0
2014-Sep-21 06:28N 37°49' W 122°25'0 0.0
2014-Sep-21 05:28N 37°49' W 122°25'0 0.0
2014-Sep-21 04:28N 37°49' W 122°25'0 0.0
2014-Sep-21 03:31N 37°49' W 122°25'0 0.0
2014-Sep-21 02:28N 37°49' W 122°25'0 0.0
2014-Sep-21 01:28N 37°49' W 122°25'2 2.4
2014-Sep-21 00:33N 37°50' W 122°27'  
Track history (hours):
 
Tides and Currents Weather Stations Pressure Air Temp Water Temp Dewpoint Dewpoint Depression Visibility Wind Speed Wind Dir Waves Ship Positions

Harbor Emperor

Owner: BLUE & GOLD FLEET, SAN FRANCISCO, CA. More information available from US FCC via Universal Licensing System and Coast Guard Vessel Documentation Center.

Last reported at 2014-Oct-01 00:33 UTC. Time now 2014-Oct-02 06:32 UTC.
Position N 37°49' W 122°25'.

Length 31 m.

Type: Passenger vessel. MMSI: 366985270.

Date/timePositionNaut miles runAvg speedWind from/ knotsBaromVisibWave heightAir tempDewpointWater temp
2014-Oct-01 00:33N 37°49' W 122°25'0 0.1
2014-Sep-30 23:33N 37°49' W 122°25'2 2.2
2014-Sep-30 22:34N 37°49' W 122°28'2 2.3
2014-Sep-30 21:33N 37°49' W 122°25'2 2.1
2014-Sep-30 20:33N 37°49' W 122°27'3 2.9
2014-Sep-30 19:33N 37°49' W 122°24'1 0.8
2014-Sep-30 18:33N 37°49' W 122°25'2 2.0
2014-Sep-30 17:33N 37°49' W 122°27'2 2.1
2014-Sep-30 16:33N 37°49' W 122°25'0 0.0
2014-Sep-30 15:30N 37°49' W 122°25'0 0.0
2014-Sep-30 14:33N 37°49' W 122°25'0 0.0
2014-Sep-30 13:33N 37°49' W 122°25'0 0.0
2014-Sep-30 12:30N 37°49' W 122°25'0 0.0
2014-Sep-30 11:33N 37°49' W 122°25'0 0.0
2014-Sep-30 10:33N 37°49' W 122°25'0 0.0
2014-Sep-30 09:33N 37°49' W 122°25'0 0.0
2014-Sep-30 08:33N 37°49' W 122°25'0 0.0
2014-Sep-30 07:33N 37°49' W 122°25'0 0.0
2014-Sep-30 06:33N 37°49' W 122°25'0 0.0
2014-Sep-30 05:33N 37°49' W 122°25'0 0.0
2014-Sep-30 04:33N 37°49' W 122°25'0 0.0
2014-Sep-30 03:33N 37°49' W 122°25'0 0.0
2014-Sep-30 02:30N 37°49' W 122°25'0 0.0
2014-Sep-30 01:33N 37°49' W 122°25'0 0.0
2014-Sep-30 00:33N 37°49' W 122°25'0 0.0
2014-Sep-29 23:34N 37°49' W 122°25'2 1.9
2014-Sep-29 22:34N 37°49' W 122°27'2 1.9
2014-Sep-29 21:32N 37°49' W 122°25'2 1.7
2014-Sep-29 20:33N 37°49' W 122°27'2 2.2
2014-Sep-29 19:34N 37°49' W 122°24'1 0.7
2014-Sep-29 18:32N 37°49' W 122°25'2 1.8
2014-Sep-29 17:33N 37°49' W 122°27'2 0.1
2014-Sep-29 00:33N 37°49' W 122°25'0 0.1
2014-Sep-28 23:34N 37°49' W 122°25'2 2.0
2014-Sep-28 22:34N 37°49' W 122°27'2 2.0
2014-Sep-28 21:33N 37°49' W 122°25'2 2.2
2014-Sep-28 20:34N 37°49' W 122°27'3 2.6
2014-Sep-28 19:33N 37°49' W 122°24'1 0.6
2014-Sep-28 18:34N 37°49' W 122°25'2 2.2
2014-Sep-28 17:33N 37°49' W 122°28'3 0.2
2014-Sep-28 05:33N 37°49' W 122°24'1 1.5
2014-Sep-28 04:33N 37°48' W 122°23'3 2.6
2014-Sep-28 03:33N 37°49' W 122°26'1 1.1
2014-Sep-28 02:32N 37°49' W 122°25'0 0.0
2014-Sep-28 01:29N 37°49' W 122°25'0 0.0
2014-Sep-28 00:32N 37°49' W 122°25'0 0.0
2014-Sep-27 23:28N 37°49' W 122°25'3 3.3
2014-Sep-27 22:33N 37°49' W 122°28'3 2.8
2014-Sep-27 21:30N 37°49' W 122°25'2 2.5
2014-Sep-27 20:33N 37°49' W 122°28'4 3.5
2014-Sep-27 19:33N 37°48' W 122°23'1 1.2
2014-Sep-27 18:34N 37°49' W 122°25'3 2.6
2014-Sep-27 17:33N 37°49' W 122°28'2 0.2
2014-Sep-27 01:34N 37°49' W 122°25'1 0.8
2014-Sep-27 00:33N 37°49' W 122°25'0 0.1
2014-Sep-26 23:34N 37°49' W 122°25'3 2.7
2014-Sep-26 22:34N 37°49' W 122°28'3 2.7
2014-Sep-26 21:33N 37°49' W 122°25'2 2.4
2014-Sep-26 20:34N 37°49' W 122°28'3 3.0
2014-Sep-26 19:33N 37°49' W 122°24'1 0.7
2014-Sep-26 18:33N 37°49' W 122°25'2 1.9
2014-Sep-26 17:33N 37°49' W 122°27'2 1.8
2014-Sep-26 16:31N 37°49' W 122°25'0 0.0
2014-Sep-26 15:28N 37°49' W 122°25'0 0.0
2014-Sep-26 14:31N 37°49' W 122°25'0 0.0
2014-Sep-26 13:28N 37°49' W 122°25'0 0.0
2014-Sep-26 12:31N 37°49' W 122°25'0 0.0
2014-Sep-26 11:31N 37°49' W 122°25'0 0.0
2014-Sep-26 10:28N 37°49' W 122°25'0 0.0
2014-Sep-26 09:31N 37°49' W 122°25'0 0.0
2014-Sep-26 08:31N 37°49' W 122°25'0 0.0
2014-Sep-26 07:31N 37°49' W 122°25'0 0.0
2014-Sep-26 06:31N 37°49' W 122°25'0 0.0
2014-Sep-26 05:31N 37°49' W 122°25'0 0.0
2014-Sep-26 04:31N 37°49' W 122°25'0 0.0
2014-Sep-26 03:31N 37°49' W 122°25'0 0.0
2014-Sep-26 02:31N 37°49' W 122°25'0 0.3
2014-Sep-26 01:33N 37°49' W 122°24'0 0.3
2014-Sep-26 00:33N 37°49' W 122°25'0 0.1
2014-Sep-25 23:33N 37°49' W 122°25'3 2.8
2014-Sep-25 22:34N 37°49' W 122°28'3 2.9
2014-Sep-25 21:34N 37°49' W 122°25'3 2.8
2014-Sep-25 20:34N 37°49' W 122°28'3 3.4
2014-Sep-25 19:33N 37°49' W 122°24'1 0.7
2014-Sep-25 18:34N 37°49' W 122°25'2 2.5
2014-Sep-25 17:33N 37°49' W 122°28'2 2.5
2014-Sep-25 16:33N 37°49' W 122°25'0 0.0
2014-Sep-25 15:33N 37°49' W 122°25'0 0.0
2014-Sep-25 14:33N 37°49' W 122°25'0 0.0
2014-Sep-25 13:33N 37°49' W 122°25'0 0.0
2014-Sep-25 12:33N 37°49' W 122°25'0 0.0
2014-Sep-25 11:30N 37°49' W 122°25'0 0.0
2014-Sep-25 10:33N 37°49' W 122°25'0 0.0
2014-Sep-25 09:30N 37°49' W 122°25'0 0.0
2014-Sep-25 08:33N 37°49' W 122°25'0 0.0
2014-Sep-25 07:33N 37°49' W 122°25'0 0.0
2014-Sep-25 06:30N 37°49' W 122°25'0 0.0
2014-Sep-25 05:33N 37°49' W 122°25'0 0.0
2014-Sep-25 04:33N 37°49' W 122°25'0 0.0
2014-Sep-25 03:33N 37°49' W 122°25'0 0.0
2014-Sep-25 02:33N 37°49' W 122°25'0 0.0
2014-Sep-25 01:33N 37°49' W 122°25'0 0.0
2014-Sep-25 00:28N 37°49' W 122°25'0 0.1
2014-Sep-24 23:33N 37°49' W 122°25'3 3.3
2014-Sep-24 22:34N 37°49' W 122°29'3 3.3
2014-Sep-24 21:33N 37°49' W 122°25'3 2.8
2014-Sep-24 20:33N 37°49' W 122°28'4 3.7
2014-Sep-24 19:33N 37°49' W 122°23'1 1.0
2014-Sep-24 18:33N 37°49' W 122°25'2 2.2
2014-Sep-24 17:33N 37°49' W 122°27'2 0.1
2014-Sep-24 00:31N 37°49' W 122°25'0 0.0
2014-Sep-23 23:34N 37°49' W 122°25'2 2.3
2014-Sep-23 22:34N 37°49' W 122°27'2 2.2
2014-Sep-23 21:33N 37°49' W 122°25'2 2.3
2014-Sep-23 20:33N 37°49' W 122°28'2 2.0
2014-Sep-23 19:33N 37°49' W 122°25'1 0.9
2014-Sep-23 18:30N 37°49' W 122°25'2 2.2
2014-Sep-23 17:33N 37°49' W 122°27'2 2.0
2014-Sep-23 16:32N 37°49' W 122°25'0 0.0
2014-Sep-23 00:31N 37°49' W 122°25'0 0.0
2014-Sep-22 23:33N 37°49' W 122°25'2 2.2
2014-Sep-22 22:33N 37°49' W 122°27'2 2.2
2014-Sep-22 21:33N 37°49' W 122°25'3 2.6
2014-Sep-22 20:33N 37°49' W 122°28'2 2.1
2014-Sep-22 19:33N 37°49' W 122°25'1 0.9
2014-Sep-22 18:33N 37°49' W 122°25'2 2.0
2014-Sep-22 17:33N 37°49' W 122°27'2 0.1
2014-Sep-22 01:08N 37°49' W 122°25'2 3.2
2014-Sep-22 00:34N 37°50' W 122°27'2 1.7
2014-Sep-21 23:34N 37°49' W 122°25'1 0.5
2014-Sep-21 22:33N 37°49' W 122°25'1 1.4
2014-Sep-21 21:34N 37°50' W 122°25'1 1.4
2014-Sep-21 20:33N 37°49' W 122°25'3 2.6
2014-Sep-21 19:34N 37°49' W 122°28'3 2.7
2014-Sep-21 18:33N 37°49' W 122°24'1 0.5
2014-Sep-21 17:33N 37°49' W 122°25'0 0.0
2014-Sep-21 16:31N 37°49' W 122°25'0 0.0
2014-Sep-21 15:31N 37°49' W 122°25'0 0.0
2014-Sep-21 14:31N 37°49' W 122°25'0 0.0
2014-Sep-21 13:31N 37°49' W 122°25'0 0.0
2014-Sep-21 12:28N 37°49' W 122°25'0 0.0
2014-Sep-21 11:31N 37°49' W 122°25'0 0.0
2014-Sep-21 10:31N 37°49' W 122°25'0 0.0
2014-Sep-21 09:31N 37°49' W 122°25'0 0.0
2014-Sep-21 08:31N 37°49' W 122°25'0 0.0
2014-Sep-21 07:31N 37°49' W 122°25'0 0.0
2014-Sep-21 06:28N 37°49' W 122°25'0 0.0
2014-Sep-21 05:28N 37°49' W 122°25'0 0.0
2014-Sep-21 04:28N 37°49' W 122°25'0 0.0
2014-Sep-21 03:31N 37°49' W 122°25'0 0.0
2014-Sep-21 02:28N 37°49' W 122°25'0 0.0
2014-Sep-21 01:28N 37°49' W 122°25'2 2.4
2014-Sep-21 00:33N 37°50' W 122°27'  

Dump ship's entire track history